createdAt,value
2023-05-06T07:36:00.613Z,196.88
2023-05-06T07:37:00.528Z,208.13
2023-05-06T07:38:00.531Z,225.00
2023-05-06T07:39:00.530Z,258.75
2023-05-06T07:40:00.544Z,270.00
2023-05-06T07:41:00.541Z,275.63
2023-05-06T07:42:00.555Z,286.88
2023-05-06T07:43:00.557Z,309.38
2023-05-06T07:44:00.570Z,331.88
2023-05-06T07:45:00.633Z,360.00
2023-05-06T07:46:00.589Z,382.50
2023-05-06T07:47:00.719Z,382.50
2023-05-06T07:48:00.628Z,337.50
2023-05-06T07:49:00.615Z,298.13
2023-05-06T07:50:00.599Z,264.38
2023-05-06T07:51:00.622Z,236.25
2023-05-06T07:52:00.644Z,225.00
2023-05-06T07:54:00.638Z,253.13
2023-05-06T07:55:00.641Z,241.88
2023-05-06T07:56:00.662Z,225.00
2023-05-06T07:57:00.661Z,225.00
2023-05-06T07:58:00.669Z,236.25
2023-05-06T07:59:00.675Z,270.00
2023-05-06T08:00:00.678Z,315.00
2023-05-06T08:01:00.692Z,309.38
2023-05-06T08:02:00.693Z,303.75
2023-05-06T08:03:00.773Z,337.50
2023-05-06T08:04:00.830Z,337.50
2023-05-06T08:05:00.742Z,365.63
2023-05-06T08:06:00.740Z,393.75
2023-05-06T08:07:00.739Z,382.50
2023-05-06T08:08:00.778Z,348.75
2023-05-06T08:09:00.759Z,365.63
2023-05-06T08:10:00.765Z,371.25
2023-05-06T08:11:01.789Z,343.13
2023-05-06T08:12:00.788Z,303.75
2023-05-06T08:13:00.832Z,286.88
2023-05-06T08:14:00.801Z,331.88
2023-05-06T08:15:00.811Z,388.13
2023-05-06T08:16:00.821Z,360.00
2023-05-06T09:23:51.817Z,281.25
2023-05-06T09:24:51.732Z,354.38
2023-05-06T09:25:51.760Z,427.50
2023-05-06T09:26:51.756Z,455.63
2023-05-06T19:27:47.997Z,0.00
2023-05-06T19:28:47.902Z,0.00
2023-05-06T19:29:47.911Z,0.00
2023-05-06T19:30:47.935Z,0.00
2023-05-06T19:31:47.923Z,0.00
2023-05-06T19:32:47.958Z,0.00
2023-05-06T19:33:47.940Z,0.00
2023-05-06T19:34:47.944Z,0.00
2023-05-06T19:35:47.946Z,0.00
2023-05-06T19:36:47.957Z,0.00
2023-05-06T19:37:47.951Z,0.00
2023-05-06T19:38:47.964Z,0.00
2023-05-06T19:39:47.969Z,0.00
2023-05-06T19:40:48.088Z,0.00
2023-05-06T19:41:48.187Z,0.00
2023-05-06T19:42:47.988Z,0.00
2023-05-06T19:43:48.105Z,0.00
2023-05-06T19:44:48.000Z,0.00
2023-05-06T19:45:48.043Z,0.00
2023-05-06T19:46:48.042Z,0.00
2023-05-06T19:47:48.063Z,0.00
2023-05-06T19:48:48.025Z,0.00
2023-05-06T19:49:48.033Z,0.00
2023-05-06T19:50:48.042Z,0.00
2023-05-06T19:51:48.045Z,0.00
2023-05-06T19:52:48.052Z,0.00
2023-05-06T19:53:48.059Z,0.00
2023-05-06T19:54:48.075Z,0.00
2023-05-06T19:55:48.101Z,0.00
2023-05-06T19:56:48.105Z,0.00
2023-05-06T19:57:48.087Z,0.00
2023-05-06T19:58:48.102Z,0.00
2023-05-06T19:59:48.195Z,0.00
2023-05-06T20:00:48.112Z,0.00
2023-05-06T20:01:48.159Z,0.00
2023-05-06T20:02:48.155Z,0.00
2023-05-06T20:03:48.216Z,0.00
2023-05-06T20:04:48.148Z,0.00
2023-05-06T20:05:48.153Z,0.00
2023-05-06T20:06:48.146Z,0.00
2023-05-06T20:07:48.160Z,0.00
2023-05-06T20:08:48.178Z,0.00
2023-05-06T20:09:49.188Z,0.00
2023-05-06T20:10:48.185Z,0.00
2023-05-06T20:11:48.181Z,0.00
2023-05-06T20:12:48.259Z,0.00
2023-05-06T20:13:48.200Z,0.00
2023-05-06T20:14:48.202Z,0.00
2023-05-06T20:15:48.340Z,0.00
2023-05-06T20:16:48.260Z,0.00
2023-05-06T20:17:48.277Z,0.00
2023-05-06T20:18:48.246Z,0.00
2023-05-06T20:19:48.254Z,0.00
2023-05-06T20:20:48.256Z,0.00
2023-05-06T20:21:48.253Z,0.00
2023-05-06T20:22:48.266Z,0.00
2023-05-06T20:23:48.264Z,0.00
2023-05-06T20:24:48.281Z,0.00
2023-05-06T20:25:48.285Z,0.00
2023-05-06T20:26:48.296Z,0.00
2023-05-06T20:27:48.298Z,0.00
2023-05-06T20:28:48.304Z,0.00
2023-05-06T20:29:48.318Z,0.00
2023-05-06T20:30:48.328Z,0.00
2023-05-06T20:31:48.461Z,0.00
2023-05-06T20:32:50.720Z,0.00
2023-05-06T20:33:48.347Z,0.00
2023-05-06T20:34:48.361Z,0.00
2023-05-06T20:35:48.347Z,0.00
2023-05-06T20:36:48.357Z,0.00
2023-05-06T20:37:48.366Z,0.00
2023-05-06T20:38:48.376Z,0.00
2023-05-06T20:39:48.384Z,0.00
2023-05-06T20:40:48.389Z,0.00
2023-05-06T20:41:48.401Z,0.00
2023-05-06T20:42:48.413Z,0.00
2023-05-06T20:43:48.411Z,0.00
2023-05-06T20:44:48.412Z,0.00
2023-05-06T20:45:48.450Z,0.00
2023-05-06T20:46:48.426Z,0.00
2023-05-06T20:47:48.622Z,0.00
2023-05-06T20:48:48.445Z,0.00
2023-05-06T20:49:48.442Z,0.00
2023-05-06T20:50:48.456Z,0.00
2023-05-06T20:51:48.462Z,0.00
2023-05-06T20:52:48.478Z,0.00
2023-05-06T20:53:48.472Z,0.00
2023-05-06T20:54:48.497Z,0.00
2023-05-06T20:55:48.540Z,0.00
2023-05-06T20:56:48.486Z,0.00
2023-05-06T20:57:48.502Z,0.00
2023-05-06T20:58:48.503Z,0.00
2023-05-06T20:59:48.509Z,0.00
2023-05-06T21:00:48.557Z,0.00
2023-05-06T21:01:48.531Z,0.00
2023-05-06T21:02:48.664Z,0.00
2023-05-06T21:03:48.744Z,0.00
2023-05-06T21:04:48.542Z,0.00
2023-05-06T21:05:48.555Z,0.00
2023-05-06T21:06:48.562Z,0.00
2023-05-06T21:07:48.568Z,0.00
2023-05-06T21:08:48.568Z,0.00
2023-05-06T21:09:48.594Z,0.00
2023-05-06T21:10:48.590Z,0.00
2023-05-06T21:11:48.592Z,0.00
2023-05-06T21:12:48.636Z,0.00
2023-05-06T21:13:50.200Z,0.00
2023-05-06T21:14:48.612Z,0.00
2023-05-06T21:15:48.623Z,0.00
2023-05-06T21:16:48.627Z,0.00
2023-05-06T21:17:48.682Z,0.00
2023-05-06T21:18:48.678Z,0.00
2023-05-06T21:19:48.756Z,0.00
2023-05-06T21:20:48.657Z,0.00
